Terminal Aerodrome Forecast
Issued by NWS

Home | Current Version | Previous Version | Text Only | Print | Product List | Glossary On
Versions: 1 2 3 4 5 6 7 8 9 10 11 12 13 14 15 16 17 18
000
FTUS46 KSEW 061130
TAFBFI
TAF
KBFI 061130Z 0612/0712 00000KT P6SM SCT004 OVC120
      TEMPO 0612/0614 2SM BR BKN004
     FM061400 00000KT P6SM SCT013 BKN045
     FM061800 36006KT P6SM SCT050 BKN250
     FM070300 00000KT P6SM SCT250=

USA.gov is the U.S. government's official web portal to all federal, state and local government web resources and services.